ADDS METAR Data INFO
IDs: Format: Raw Decoded Include TAF

Data at: 2026 UTC 20 Jul 2018

KPSF 201954Z AUTO 18008KT 10SM FEW060 28/12 A3013 RMK AO2 SLP179 T02830122
KPSF 201854Z AUTO 21008G14KT 10SM CLR 28/12 A3014 RMK AO2 SLP183 T02780122
KPSF 201754Z AUTO 00000KT 10SM CLR 27/11 A3016 RMK AO2 SLP191 T02720111 10272 20161 58009
KPSF 201654Z AUTO 11004KT 10SM CLR 27/12 A3017 RMK AO2 SLP193 T02670117
KPSF 201554Z AUTO 00000KT 10SM CLR 26/12 A3019 RMK AO2 SLP200 T02560117
KPSF 201454Z AUTO 14003KT 10SM CLR 25/14 A3019 RMK AO2 SLP200 T02500139 58001
KPSF 201354Z AUTO 00000KT 10SM CLR 22/13 A3019 RMK AO2 SLP201 T02220133
KPSF 201311Z AUTO 00000KT 10SM FEW002 21/13 A3019 RMK AO2 T02060128
KPSF 201254Z AUTO 00000KT 10SM CLR 20/12 A3020 RMK AO2 SLP203 T02000122
KPSF 201154Z AUTO 00000KT 10SM CLR 16/11 A3019 RMK AO2 SLP201 T01610111 10161 20100 53008
KPSF 201054Z AUTO 00000KT 10SM CLR 13/11 A3018 RMK AO2 SLP199 T01280111
KPSF 200954Z AUTO 14003KT 9SM CLR 10/09 A3017 RMK AO2 SLP198 T01000089
KPSF 200854Z AUTO 00000KT 10SM CLR 11/09 A3017 RMK AO2 SLPNO T01110094 51005
KPSF 200754Z AUTO 00000KT 9SM CLR 11/09 A3016 RMK AO2 SLPNO T01110094
KPSF 200654Z AUTO 00000KT 10SM CLR 12/10 A3016 RMK AO2 SLPNO T01220100
KPSF 200554Z AUTO 00000KT 10SM CLR 12/10 A3015 RMK AO2 SLPNO T01170100 10228 20117 50002
KPSF 200454Z AUTO 00000KT 10SM CLR 13/11 A3015 RMK AO2 SLPNO T01280106
KPSF 200354Z AUTO 00000KT 10SM CLR 13/11 A3015 RMK AO2 SLPNO T01330106
KPSF 200254Z AUTO 00000KT 10SM CLR 14/11 A3014 RMK AO2 SLPNO T01390106 51014
KPSF 200154Z AUTO 00000KT 10SM CLR 16/11 A3014 RMK AO2 SLPNO T01610111
KPSF 200054Z AUTO 00000KT 10SM CLR 19/12 A3012 RMK AO2 SLPNO T01890117 $
KPSF 192354Z AUTO 00000KT 10SM CLR 23/08 A3010 RMK AO2 SLPNO T02330083 $
KPSF 192254Z AUTO 00000KT 10SM CLR 25/07 A3009 RMK AO2 SLPNO T02500072 $
KPSF 192154Z AUTO 29004KT 10SM CLR 26/07 A3009 RMK AO2 SLPNO T02560072 $
KPSF 191954Z AUTO A3010 RMK AO2 SLPNO PWINO $
KPSF 191854Z AUTO A3010 RMK AO2 SLPNO PWINO $
KPSF 191754Z AUTO A3011 RMK AO2 SLPNO 58006 PWINO $
KPSF 191654Z AUTO A3012 RMK AO2 SLPNO PWINO $
KPSF 191554Z AUTO A3013 RMK AO2 SLPNO PWINO $
KPSF 191454Z AUTO A3013 RMK AO2 SLPNO 52003 PWINO $
KPSF 191354Z AUTO A3013 RMK AO2 SLPNO PWINO $
KPSF 191254Z AUTO A3012 RMK AO2 SLPNO PWINO $
KPSF 191154Z AUTO A3012 RMK AO2 SLPNO 52010 PWINO $
KPSF 191054Z AUTO A3011 RMK AO2 SLPNO PWINO $
KPSF 190954Z AUTO A3010 RMK AO2 SLPNO PWINO $
KPSF 190854Z AUTO A3009 RMK AO2 SLPNO 53013 PWINO $